Time;durP1;ratioP1;P1;durP2;ratioP2;P2;SDS_P1;SDS_P2;PMS_P1;PMS_P2;Temp;Humidity;BMP_temperature;BMP_pressure;BME280_temperature;BME280_humidity;BME280_pressure;Samples;Min_cycle;Max_cycle;Signal;HPM_P1;HPM_P2
2023/05/16 00:01:38;;;;;;;6.32;2.88;;;;;;;19.94;48.80;98890.72;4903158;29;20021;-91
2023/05/16 00:04:04;;;;;;;6.38;2.40;;;;;;;19.87;48.83;98876.81;4901620;29;20024;-90
2023/05/16 00:06:30;;;;;;;5.20;2.40;;;;;;;19.89;48.82;98896.41;4901891;29;20051;-91
2023/05/16 00:08:56;;;;;;;5.63;2.95;;;;;;;19.90;48.71;98894.47;4886697;29;20099;-91
2023/05/16 00:11:22;;;;;;;6.13;2.90;;;;;;;19.91;48.87;98885.94;4902345;29;20056;-92
2023/05/16 00:13:47;;;;;;;4.20;2.65;;;;;;;20.00;48.39;98894.00;4887332;29;20426;-92
2023/05/16 00:16:13;;;;;;;8.35;2.70;;;;;;;19.88;48.76;98885.81;4899475;29;20029;-91
2023/05/16 00:18:39;;;;;;;6.65;2.78;;;;;;;19.82;48.69;98885.28;4902752;29;20411;-91
2023/05/16 00:21:05;;;;;;;2.88;2.35;;;;;;;19.85;48.69;98887.31;4899640;29;20033;-92
2023/05/16 00:23:30;;;;;;;6.05;2.70;;;;;;;19.83;49.41;98891.53;4903109;29;20062;-91
2023/05/16 00:25:56;;;;;;;5.47;2.83;;;;;;;19.77;48.72;98864.41;4887532;29;20039;-91
2023/05/16 00:28:21;;;;;;;4.75;2.55;;;;;;;19.86;49.29;98877.97;4902244;29;20180;-91
2023/05/16 00:30:47;;;;;;;6.13;2.85;;;;;;;19.76;49.00;98860.09;4902314;29;20066;-91
2023/05/16 00:33:12;;;;;;;4.93;2.60;;;;;;;19.83;48.97;98867.72;4914454;29;20498;-91
2023/05/16 00:35:38;;;;;;;3.70;2.83;;;;;;;19.75;48.96;98863.97;4883370;29;20032;-90
2023/05/16 00:38:03;;;;;;;11.65;3.33;;;;;;;19.86;48.61;98877.16;4871459;29;20048;-91
2023/05/16 00:40:29;;;;;;;6.43;3.00;;;;;;;19.78;48.75;98867.97;4884860;29;20071;-91
2023/05/16 00:42:54;;;;;;;9.40;3.15;;;;;;;19.93;48.72;98880.13;4887562;29;20032;-91
2023/05/16 00:45:20;;;;;;;5.90;2.80;;;;;;;19.75;48.36;98855.75;4887201;29;20411;-92
2023/05/16 00:47:46;;;;;;;6.40;2.85;;;;;;;19.88;48.33;98872.97;4886616;29;20036;-90
2023/05/16 00:50:11;;;;;;;6.15;2.78;;;;;;;19.92;48.59;98864.88;4887034;29;20068;-91
2023/05/16 00:52:37;;;;;;;5.85;3.03;;;;;;;19.99;48.26;98854.97;4886549;29;20036;-91
2023/05/16 00:55:03;;;;;;;4.97;2.67;;;;;;;20.05;48.33;98866.47;4902150;29;20399;-91
2023/05/16 00:57:28;;;;;;;5.45;2.72;;;;;;;19.90;48.15;98840.63;4887362;29;20032;-91
2023/05/16 00:59:54;;;;;;;6.95;2.80;;;;;;;20.05;47.79;98843.81;4902129;29;20033;-91
2023/05/16 01:02:20;;;;;;;6.90;2.50;;;;;;;20.11;47.78;98853.38;4885791;29;20058;-91
2023/05/16 01:04:47;;;;;;;5.50;2.70;;;;;;;20.13;48.11;98851.88;4901755;29;20043;-91
2023/05/16 01:07:12;;;;;;;4.80;3.03;;;;;;;20.09;48.04;98840.03;4886323;29;20613;-92
2023/05/16 01:09:38;;;;;;;9.18;3.05;;;;;;;20.06;47.93;98837.19;4901643;29;20060;-92
2023/05/16 01:12:10;;;;;;;5.15;3.20;;;;;;;20.23;47.84;98858.78;4901419;29;20025;-91
2023/05/16 01:14:47;;;;;;;;;;;;;;;20.23;47.75;98861.50;4919333;29;20032;-92
2023/05/16 01:17:12;;;;;;;4.22;2.72;;;;;;;20.22;47.94;98865.41;4901528;29;19966;-91
2023/05/16 01:19:54;;;;;;;7.43;3.03;;;;;;;20.23;47.96;98872.44;4918511;29;20514;-91
2023/05/16 01:22:37;;;;;;;5.47;2.50;;;;;;;20.21;47.96;98877.47;4917184;29;20055;-92
2023/05/16 01:25:21;;;;;;;7.47;3.05;;;;;;;20.22;48.12;98870.88;4901353;29;20028;-92
2023/05/16 01:27:46;;;;;;;5.57;2.75;;;;;;;20.09;47.97;98856.44;4901117;29;20036;-91
2023/05/16 01:30:16;;;;;;;5.00;2.80;;;;;;;20.11;48.36;98862.34;4901485;29;20598;-91
2023/05/16 01:32:42;;;;;;;5.55;3.30;;;;;;;20.14;48.16;98861.66;4885741;29;20020;-91
2023/05/16 01:35:08;;;;;;;6.53;2.83;;;;;;;20.09;47.67;98852.91;4901688;29;20502;-91
2023/05/16 01:37:35;;;;;;;3.95;2.90;;;;;;;20.13;47.78;98860.06;4885360;29;20474;-91
2023/05/16 01:40:26;;;;;;;5.22;2.90;;;;;;;20.08;47.62;98860.28;4885464;29;20028;-92
2023/05/16 01:42:52;;;;;;;4.10;2.33;;;;;;;20.10;47.71;98863.47;4900420;29;20036;-91
2023/05/16 01:45:26;;;;;;;4.05;2.60;;;;;;;20.14;47.78;98866.31;4901057;29;20028;-92
2023/05/16 01:47:57;;;;;;;6.43;2.90;;;;;;;20.06;47.66;98850.84;4884916;29;20028;-91
2023/05/16 01:50:23;;;;;;;4.38;2.40;;;;;;;20.12;47.99;98860.41;4900366;29;20032;-91
2023/05/16 01:52:58;;;;;;;7.15;2.75;;;;;;;20.19;48.03;98857.88;4884619;29;20091;-91
2023/05/16 01:55:45;;;;;;;4.78;2.55;;;;;;;20.17;47.99;98857.41;4900212;29;20036;-91
2023/05/16 01:58:11;;;;;;;5.85;2.67;;;;;;;20.04;48.23;98836.72;4900039;29;20126;-91
2023/05/16 02:00:37;;;;;;;4.63;2.70;;;;;;;20.05;48.41;98839.13;4900886;29;20024;-91
2023/05/16 02:03:02;;;;;;;7.05;2.88;;;;;;;19.94;48.35;98825.16;4884413;29;20063;-91
2023/05/16 02:05:30;;;;;;;6.10;3.17;;;;;;;20.06;48.23;98839.91;4899786;29;20099;-91
2023/05/16 02:07:56;;;;;;;5.82;3.13;;;;;;;20.01;47.80;98843.69;4899749;29;20415;-92
2023/05/16 02:10:21;;;;;;;4.93;2.58;;;;;;;19.95;47.65;98826.72;4884225;29;20040;-91
2023/05/16 02:12:46;;;;;;;5.28;2.70;;;;;;;20.01;47.97;98845.63;4899700;29;20036;-91
2023/05/16 02:15:13;;;;;;;7.18;2.63;;;;;;;20.01;48.15;98848.38;4884287;29;20035;-93
2023/05/16 02:17:39;;;;;;;6.20;2.92;;;;;;;20.05;47.63;98861.00;4884323;29;20038;-91
2023/05/16 02:20:06;;;;;;;6.20;2.70;;;;;;;19.96;47.70;98852.94;4884599;29;20400;-92
2023/05/16 02:22:32;;;;;;;6.30;2.95;;;;;;;20.03;47.79;98859.75;4900331;29;20087;-91
2023/05/16 02:24:59;;;;;;;5.15;2.70;;;;;;;19.93;47.82;98841.88;4899779;29;20487;-91
2023/05/16 02:27:25;;;;;;;8.32;3.08;;;;;;;19.88;48.06;98845.66;4884041;29;20028;-92
2023/05/16 02:29:50;;;;;;;8.00;2.88;;;;;;;19.92;48.49;98838.34;4887791;29;20020;-92
2023/05/16 02:32:16;;;;;;;4.13;2.80;;;;;;;19.86;48.50;98827.97;4895518;29;20026;-91
2023/05/16 02:34:41;;;;;;;4.93;2.60;;;;;;;19.86;48.25;98830.72;4875347;29;20087;-91
2023/05/16 02:37:07;;;;;;;3.65;2.50;;;;;;;19.85;48.63;98829.13;4888306;29;20080;-91
2023/05/16 02:39:32;;;;;;;3.60;2.72;;;;;;;19.76;48.85;98821.88;4873086;29;20467;-91
2023/05/16 02:41:58;;;;;;;9.15;3.20;;;;;;;19.76;48.96;98840.19;4872718;29;20024;-91
2023/05/16 02:44:23;;;;;;;4.28;2.60;;;;;;;19.79;48.79;98851.22;4888899;29;20051;-91
2023/05/16 02:46:49;;;;;;;4.95;2.70;;;;;;;19.59;49.01;98828.34;4872766;29;20051;-90
2023/05/16 02:49:15;;;;;;;7.30;3.20;;;;;;;19.61;49.22;98822.53;4872991;29;20032;-91
2023/05/16 02:51:42;;;;;;;5.65;2.88;;;;;;;19.55;49.67;98832.09;4887933;29;20402;-91
2023/05/16 02:54:08;;;;;;;5.40;3.28;;;;;;;19.51;49.26;98825.72;4887873;29;20043;-91
2023/05/16 02:56:34;;;;;;;7.63;3.40;;;;;;;19.49;49.92;98820.59;4907677;29;20443;-91
2023/05/16 02:59:00;;;;;;;4.75;3.28;;;;;;;19.53;50.35;98826.19;4888175;29;20031;-91
2023/05/16 03:01:25;;;;;;;6.55;3.08;;;;;;;19.47;50.75;98839.25;4872918;29;20024;-91
2023/05/16 03:03:51;;;;;;;8.13;3.38;;;;;;;19.45;50.53;98843.47;4888528;29;20027;-90
2023/05/16 03:06:17;;;;;;;6.97;3.35;;;;;;;19.36;50.34;98821.72;4888689;29;20024;-91
2023/05/16 03:08:42;;;;;;;14.52;3.55;;;;;;;19.26;50.93;98827.63;4872554;29;20043;-91
2023/05/16 03:11:07;;;;;;;5.25;3.25;;;;;;;19.18;51.41;98818.41;4872886;29;20035;-90
2023/05/16 03:13:33;;;;;;;6.35;3.40;;;;;;;19.20;51.23;98824.34;4903599;29;20070;-91
2023/05/16 03:15:59;;;;;;;6.45;3.20;;;;;;;19.12;51.62;98823.28;4872101;29;20032;-90
2023/05/16 03:18:25;;;;;;;8.88;3.35;;;;;;;19.03;51.82;98813.59;4891355;29;20028;-89
2023/05/16 03:20:51;;;;;;;6.03;3.45;;;;;;;19.10;51.93;98828.28;4871911;29;20028;-90
2023/05/16 03:23:20;;;;;;;7.35;3.25;;;;;;;19.06;51.89;98830.09;4888178;29;20059;-91
2023/05/16 03:25:46;;;;;;;6.97;3.25;;;;;;;19.04;52.33;98821.44;4888181;29;20028;-91
2023/05/16 03:28:11;;;;;;;8.57;3.08;;;;;;;19.06;51.92;98821.13;4872468;29;20031;-92
2023/05/16 03:30:37;;;;;;;4.68;2.83;;;;;;;19.10;51.51;98839.22;4872273;29;20475;-91
2023/05/16 03:33:05;;;;;;;6.30;2.70;;;;;;;19.06;51.88;98838.28;4872244;29;20078;-91
2023/05/16 03:35:31;;;;;;;5.53;2.78;;;;;;;19.08;51.32;98837.97;4876544;29;20027;-92
2023/05/16 03:37:57;;;;;;;5.75;3.05;;;;;;;19.21;51.26;98838.78;4893575;29;20040;-91
2023/05/16 03:40:22;;;;;;;7.80;2.88;;;;;;;19.20;50.78;98824.34;4892396;29;20031;-92
2023/05/16 03:42:48;;;;;;;9.52;3.85;;;;;;;19.23;50.40;98829.09;4913250;29;20039;-91
2023/05/16 03:45:13;;;;;;;8.30;3.13;;;;;;;19.35;50.54;98831.84;4876211;29;20043;-91
2023/05/16 03:47:39;;;;;;;7.65;2.90;;;;;;;19.38;49.50;98841.28;4888979;29;20012;-91
2023/05/16 03:50:05;;;;;;;7.15;3.28;;;;;;;19.44;49.85;98831.72;4904630;29;20032;-92
2023/05/16 03:52:30;;;;;;;10.43;3.58;;;;;;;19.62;49.52;98845.19;4889503;29;20059;-92
2023/05/16 03:54:56;;;;;;;6.47;3.20;;;;;;;19.68;49.45;98839.13;4890888;29;20024;-91
2023/05/16 03:57:22;;;;;;;17.08;3.55;;;;;;;19.86;50.22;98856.13;4889998;29;20039;-91
2023/05/16 03:59:48;;;;;;;8.32;3.45;;;;;;;19.87;50.09;98846.00;4872942;29;20020;-92
2023/05/16 04:02:13;;;;;;;5.45;3.00;;;;;;;19.96;50.09;98847.47;4889092;29;20031;-93
2023/05/16 04:04:39;;;;;;;10.50;3.47;;;;;;;19.97;49.55;98838.09;4873299;29;20032;-93
2023/05/16 04:07:05;;;;;;;11.00;4.18;;;;;;;19.98;49.61;98820.59;4890001;29;20008;-96
2023/05/16 04:09:30;;;;;;;8.85;4.05;;;;;;;20.12;49.49;98833.88;4874959;29;20154;-94
2023/05/16 04:11:56;;;;;;;6.07;3.38;;;;;;;20.27;49.21;98842.47;4890981;29;20034;-95
2023/05/16 04:14:23;;;;;;;12.75;3.03;;;;;;;20.30;49.02;98836.34;4888988;29;20032;-96
2023/05/16 04:16:49;;;;;;;9.05;3.20;;;;;;;20.37;48.86;98829.13;4876780;29;20095;-96
2023/05/16 04:19:14;;;;;;;5.38;2.88;;;;;;;20.43;48.05;98832.41;4891923;29;20174;-96
2023/05/16 04:21:40;;;;;;;15.20;4.25;;;;;;;20.53;48.35;98833.88;4891311;29;20032;-96
2023/05/16 04:24:06;;;;;;;5.30;2.90;;;;;;;20.72;47.35;98847.69;4877215;29;20028;-94
2023/05/16 04:26:32;;;;;;;7.10;2.72;;;;;;;20.73;46.66;98841.09;4877473;29;20046;-95
2023/05/16 04:28:58;;;;;;;8.82;3.00;;;;;;;20.77;47.10;98831.06;4876338;29;20020;-96
2023/05/16 04:31:24;;;;;;;8.35;3.20;;;;;;;20.89;46.58;98826.66;4881794;29;20024;-94
2023/05/16 04:33:50;;;;;;;7.18;2.78;;;;;;;21.02;45.00;98830.88;4876595;29;20028;-93
2023/05/16 04:36:43;;;;;;;17.70;4.22;;;;;;;21.22;45.86;98855.66;4910466;29;20054;-95
2023/05/16 04:39:37;;;;;;;8.43;4.00;;;;;;;21.27;45.47;98833.47;4872595;29;20102;-95
2023/05/16 04:42:19;;;;;;;9.00;3.25;;;;;;;21.24;45.51;98824.03;4834644;29;20033;-95
2023/05/16 04:44:53;;;;;;;7.00;3.28;;;;;;;21.44;44.62;98838.66;4876804;29;20048;-96
2023/05/16 04:47:19;;;;;;;6.53;3.20;;;;;;;21.38;44.55;98824.38;4847913;29;20130;-95
2023/05/16 04:49:54;;;;;;;9.65;3.15;;;;;;;21.69;44.80;98847.47;4846843;29;20046;-96
2023/05/16 04:52:21;;;;;;;7.30;2.60;;;;;;;21.67;44.61;98841.53;4843938;29;20129;-95
2023/05/16 04:54:52;;;;;;;9.80;3.47;;;;;;;21.73;44.88;98834.63;4844059;29;20568;-95
2023/05/16 04:57:20;;;;;;;7.38;2.70;;;;;;;21.75;44.27;98826.06;4841654;29;20046;-95
2023/05/16 04:59:46;;;;;;;6.72;3.13;;;;;;;21.98;43.74;98835.19;4895179;23;20115;-94
2023/05/16 05:02:35;;;;;;;11.77;2.58;;;;;;;22.06;43.76;98846.31;4922105;29;20040;-96
2023/05/16 05:05:06;;;;;;;8.57;2.75;;;;;;;22.03;43.47;98852.53;4936275;29;20039;-96
2023/05/16 05:11:09;;;;;;;7.47;2.88;;;;;;;22.13;43.64;98843.75;4929812;29;20044;-96
2023/05/16 05:13:35;;;;;;;;;;;;;;;22.43;42.95;98881.59;4904403;29;20072;-95
2023/05/16 05:16:03;;;;;;;7.32;2.97;;;;;;;22.36;43.15;98877.56;4901259;29;19915;-94
2023/05/16 05:18:32;;;;;;;7.40;3.10;;;;;;;22.30;43.25;98848.81;4889977;29;20033;-96
2023/05/16 05:21:11;;;;;;;;;;;;;;;;;;;;;
2023/05/16 05:23:40;;;;;;;21.98;14.30;;;;;;;22.52;42.87;98868.50;4865099;29;20449;-95
2023/05/16 05:26:06;;;;;;;6.65;3.83;;;;;;;22.49;42.21;98852.72;4869542;29;20044;-92
2023/05/16 05:34:25;;;;;;;7.78;3.17;;;;;;;22.55;42.93;98832.09;5366409;23;20043;-95
2023/05/16 05:37:11;;;;;;;5.22;2.65;;;;;;;22.55;42.45;98834.81;4892594;29;20038;-96
2023/05/16 05:46:57;;;;;;;13.82;3.30;;;;;;;23.23;41.36;98852.59;4933333;29;20051;-96
2023/05/16 05:49:59;;;;;;;7.35;3.65;;;;;;;23.08;41.49;98832.31;4877888;29;20040;-94
2023/05/16 05:52:28;;;;;;;9.05;3.55;;;;;;;23.15;41.38;98848.91;4893818;29;20041;-95
2023/05/16 05:55:10;;;;;;;7.80;3.50;;;;;;;23.29;41.15;98855.84;4876910;29;20032;-94
2023/05/16 05:57:35;;;;;;;8.32;3.38;;;;;;;23.20;41.24;98862.38;4894058;29;20043;-95
2023/05/16 06:00:07;;;;;;;9.65;3.10;;;;;;;23.11;40.84;98852.75;4910268;29;20537;-95
2023/05/16 06:05:25;;;;;;;9.50;3.30;;;;;;;23.40;39.89;98881.53;4933898;29;20034;-96
2023/05/16 06:07:53;;;;;;;9.35;3.10;;;;;;;23.39;39.33;98875.25;4928504;29;20115;-93
2023/05/16 06:10:20;;;;;;;10.68;3.30;;;;;;;23.47;39.95;98884.41;4926388;29;20121;-96
2023/05/16 06:12:45;;;;;;;9.07;2.97;;;;;;;23.44;39.91;98876.88;4912824;29;20039;-95
2023/05/16 06:25:16;;;;;;;7.00;3.05;;;;;;;23.91;38.63;98894.94;4813001;29;20076;-95
2023/05/16 06:28:05;;;;;;;14.07;3.47;;;;;;;23.77;38.58;98876.28;4908267;29;20043;-96
2023/05/16 06:30:53;;;;;;;9.90;5.50;;;;;;;24.02;37.72;98866.81;4886393;29;20055;-96
2023/05/16 06:33:22;;;;;;;15.00;3.83;;;;;;;24.20;37.50;98882.41;4948420;29;20047;-95
2023/05/16 06:36:17;;;;;;;10.63;5.80;;;;;;;23.81;37.69;98876.34;4916652;29;20525;-94
2023/05/16 06:38:43;;;;;;;13.35;2.95;;;;;;;23.90;38.12;98882.34;4920582;29;20031;-95
2023/05/16 06:41:09;;;;;;;11.35;3.30;;;;;;;24.11;37.86;98897.59;4896055;29;20032;-96
2023/05/16 06:43:35;;;;;;;11.10;3.15;;;;;;;24.13;38.09;98898.00;4872029;29;20095;-92
2023/05/16 06:46:03;;;;;;;5.93;3.00;;;;;;;24.21;37.21;98888.69;4870049;29;20032;-91
2023/05/16 06:48:29;;;;;;;14.23;4.38;;;;;;;24.34;37.81;98903.00;4901427;29;20032;-93
2023/05/16 06:50:56;;;;;;;7.00;3.63;;;;;;;24.35;37.62;98891.66;4886508;29;20034;-93
2023/05/16 06:53:21;;;;;;;7.85;3.25;;;;;;;24.34;38.43;98898.31;4887126;29;20050;-91
2023/05/16 06:55:47;;;;;;;7.43;3.58;;;;;;;24.12;38.67;98888.19;4916538;29;20031;-92
2023/05/16 06:58:13;;;;;;;8.77;3.55;;;;;;;23.95;39.15;98893.06;4869236;29;20032;-91
2023/05/16 07:00:40;;;;;;;12.60;4.30;;;;;;;23.82;39.92;98899.13;4870352;29;20028;-93
2023/05/16 07:03:05;;;;;;;9.15;3.95;;;;;;;23.83;40.26;98908.97;4870792;29;20059;-92
2023/05/16 07:05:33;;;;;;;7.03;3.10;;;;;;;23.83;39.48;98915.25;4906683;29;20049;-92
2023/05/16 07:08:01;;;;;;;52.80;20.08;;;;;;;23.47;40.63;98891.84;4898774;29;20573;-92
2023/05/16 07:10:27;;;;;;;19.67;10.43;;;;;;;23.42;41.14;98897.66;4929054;29;20056;-92
2023/05/16 07:12:53;;;;;;;11.63;3.47;;;;;;;23.43;41.81;98910.22;4904092;29;20399;-93
2023/05/16 07:15:18;;;;;;;6.57;2.95;;;;;;;23.60;41.12;98905.03;4891714;29;20395;-91
2023/05/16 07:17:44;;;;;;;12.68;3.53;;;;;;;23.55;41.35;98910.84;4908582;29;20040;-91
2023/05/16 07:20:12;;;;;;;6.20;3.40;;;;;;;23.47;41.58;98905.59;4876921;29;20031;-91
2023/05/16 07:22:38;;;;;;;8.35;3.63;;;;;;;23.76;41.34;98928.84;4922573;29;20032;-90
2023/05/16 07:25:11;;;;;;;7.55;3.83;;;;;;;23.67;41.01;98912.59;4889300;29;20111;-91
2023/05/16 07:31:48;;;;;;;5.20;3.10;;;;;;;24.01;40.92;98945.78;4923381;29;20035;-90
2023/05/16 07:34:18;;;;;;;5.85;3.80;;;;;;;24.04;40.55;98916.75;4907360;29;20518;-91
2023/05/16 07:36:44;;;;;;;71.30;54.03;;;;;;;23.90;40.93;98909.84;4912607;29;20107;-92
2023/05/16 07:39:10;;;;;;;10.05;4.07;;;;;;;23.97;41.10;98922.94;4904779;29;20074;-93
2023/05/16 07:41:35;;;;;;;22.73;8.15;;;;;;;24.15;41.92;98928.69;4885318;29;20103;-91
2023/05/16 07:44:01;;;;;;;13.90;4.47;;;;;;;24.13;42.19;98915.31;4886311;29;20462;-92
2023/05/16 07:46:29;;;;;;;13.48;5.45;;;;;;;24.14;42.34;98921.63;4881747;29;20335;-92
2023/05/16 07:48:55;;;;;;;30.65;17.30;;;;;;;24.13;41.62;98914.50;4887524;29;20035;-92
2023/05/16 07:51:23;;;;;;;16.33;6.80;;;;;;;24.21;41.20;98907.97;4869466;29;20104;-93
2023/05/16 07:53:51;;;;;;;10.35;4.25;;;;;;;24.26;41.18;98899.41;4854200;29;20403;-92
2023/05/16 07:56:16;;;;;;;11.43;5.03;;;;;;;24.05;40.72;98908.13;4854155;29;20100;-89
2023/05/16 07:58:42;;;;;;;6.97;3.40;;;;;;;24.07;40.89;98907.75;4885584;29;20440;-90
2023/05/16 08:01:08;;;;;;;19.23;14.50;;;;;;;24.08;40.38;98920.34;4871201;29;20020;-93
2023/05/16 08:03:34;;;;;;;9.50;3.42;;;;;;;23.89;40.74;98911.03;4853937;29;20029;-92
2023/05/16 08:05:59;;;;;;;10.82;3.50;;;;;;;24.12;40.95;98924.72;4868551;29;20494;-93
2023/05/16 08:08:25;;;;;;;9.20;3.70;;;;;;;24.32;40.42;98924.59;4908928;29;20031;-92
2023/05/16 08:10:50;;;;;;;13.00;3.45;;;;;;;24.28;40.47;98927.34;4880728;29;20031;-90
2023/05/16 08:13:23;;;;;;;15.35;7.30;;;;;;;24.30;40.02;98905.75;4920124;29;20031;-90
2023/05/16 08:16:10;;;;;;;13.27;4.90;;;;;;;24.32;39.60;98916.34;4884667;29;20048;-89
2023/05/16 08:22:05;;;;;;;;;;;;;;;24.09;40.92;98933.72;4917563;29;20062;-92
2023/05/16 08:24:40;;;;;;;5.90;3.67;;;;;;;23.79;41.62;98903.41;4922225;29;19915;-91
2023/05/16 08:27:08;;;;;;;11.27;3.90;;;;;;;23.80;41.41;98904.97;4879841;29;20482;-93
2023/05/16 08:30:06;;;;;;;9.85;3.92;;;;;;;23.79;41.78;98906.16;4910237;29;20531;-93
2023/05/16 08:33:51;;;;;;;10.50;4.15;;;;;;;23.73;42.27;98915.84;4863030;29;20084;-93
2023/05/16 08:36:09;;;;;;;10.68;4.30;;;;;;;23.64;43.05;98901.53;4876650;29;20104;-93
2023/05/16 08:38:38;;;;;;;12.38;4.80;;;;;;;23.74;42.99;98918.22;4875775;29;20049;-94
2023/05/16 08:41:07;;;;;;;11.82;4.43;;;;;;;23.74;42.66;98900.91;4901552;29;20032;-94
2023/05/16 08:43:34;;;;;;;10.02;5.10;;;;;;;23.64;42.66;98898.78;4890714;29;20032;-93
2023/05/16 08:46:09;;;;;;;9.85;3.10;;;;;;;23.79;42.53;98914.41;4888997;29;20032;-94
2023/05/16 08:48:37;;;;;;;9.18;3.83;;;;;;;23.84;43.09;98888.53;4904517;29;20364;-94
2023/05/16 08:51:06;;;;;;;8.80;3.95;;;;;;;23.77;43.02;98883.72;4903769;29;20135;-92
2023/05/16 08:54:15;;;;;;;10.05;3.88;;;;;;;23.88;42.00;98884.69;4887061;29;20070;-95
2023/05/16 08:56:44;;;;;;;9.00;3.35;;;;;;;24.02;42.03;98900.59;4900783;29;20048;-91
2023/05/16 08:59:16;;;;;;;6.93;3.58;;;;;;;24.16;42.68;98909.06;4886008;29;20040;-92
2023/05/16 09:02:27;;;;;;;7.65;4.80;;;;;;;24.34;41.66;98897.50;4887739;29;20035;-93
2023/05/16 09:05:08;;;;;;;12.32;4.30;;;;;;;24.59;41.26;98903.38;4943373;29;20030;-95
2023/05/16 09:07:45;;;;;;;9.43;4.22;;;;;;;24.63;41.85;98922.69;4928702;29;20028;-95
2023/05/16 09:10:11;;;;;;;7.55;3.88;;;;;;;24.70;41.47;98889.75;4919125;29;20035;-95
2023/05/16 09:12:52;;;;;;;8.88;3.10;;;;;;;24.54;41.65;98889.94;4905789;29;20426;-95
2023/05/16 09:15:21;;;;;;;;;;;;;;;24.72;41.64;98892.94;4906349;29;20525;-94
2023/05/16 09:17:52;;;;;;;9.10;3.65;;;;;;;24.72;40.80;98885.47;4907829;29;20035;-94
2023/05/16 09:20:21;;;;;;;14.70;3.92;;;;;;;24.62;41.76;98864.09;4906437;29;20032;-92
2023/05/16 09:23:04;;;;;;;10.57;3.60;;;;;;;24.76;41.74;98891.81;4889340;29;20032;-93
2023/05/16 09:25:30;;;;;;;6.53;4.00;;;;;;;24.41;42.28;98870.09;4891867;29;20050;-93
2023/05/16 09:28:00;;;;;;;11.85;3.90;;;;;;;24.48;43.29;98880.41;4906556;29;20031;-94
2023/05/16 09:31:37;;;;;;;;;;;;;;;;;;;;;
2023/05/16 09:34:29;;;;;;;14.38;4.15;;;;;;;24.09;43.15;98864.16;4943356;29;20111;-94
2023/05/16 09:36:57;;;;;;;7.95;3.70;;;;;;;24.11;43.49;98884.63;4923754;29;20090;-93
2023/05/16 09:40:17;;;;;;;13.07;4.90;;;;;;;23.95;44.02;98871.06;4917561;29;20118;-96
2023/05/16 09:43:05;;;;;;;7.75;4.10;;;;;;;23.77;44.65;98865.28;4851970;29;20053;-95
2023/05/16 09:45:40;;;;;;;6.03;3.80;;;;;;;23.70;44.29;98853.34;4836289;29;20497;-95
2023/05/16 09:48:15;;;;;;;13.48;5.18;;;;;;;23.75;43.60;98867.56;4852289;29;20040;-92
2023/05/16 09:50:45;;;;;;;13.40;4.45;;;;;;;23.85;44.48;98876.41;4852916;29;20460;-93
2023/05/16 09:53:17;;;;;;;15.50;5.72;;;;;;;23.77;45.41;98862.53;4895785;29;20039;-93
2023/05/16 09:56:01;;;;;;;12.13;4.07;;;;;;;23.92;44.50;98858.03;4905973;29;20466;-93
2023/05/16 09:58:46;;;;;;;13.23;4.35;;;;;;;24.07;44.04;98875.53;4906026;29;20040;-94
2023/05/16 10:01:26;;;;;;;11.40;3.95;;;;;;;24.09;43.20;98864.94;4899623;29;20482;-92
2023/05/16 10:03:54;;;;;;;9.02;4.30;;;;;;;24.02;43.33;98862.09;4866536;29;20041;-93
2023/05/16 10:06:22;;;;;;;12.23;3.80;;;;;;;24.23;43.29;98874.56;4832588;29;20045;-96
2023/05/16 10:08:50;;;;;;;9.52;3.33;;;;;;;24.19;43.55;98869.81;4851084;29;20102;-94
2023/05/16 10:11:21;;;;;;;19.52;11.57;;;;;;;24.23;43.21;98869.84;4880057;29;20119;-95
2023/05/16 10:14:33;;;;;;;11.48;4.20;;;;;;;24.27;42.99;98884.47;4860230;29;20068;-93
2023/05/16 10:17:06;;;;;;;15.90;5.82;;;;;;;24.14;43.75;98861.09;4839410;29;20049;-95
2023/05/16 10:19:41;;;;;;;10.27;3.80;;;;;;;24.08;42.63;98819.38;4853386;29;20090;-94
2023/05/16 10:22:09;;;;;;;7.20;3.40;;;;;;;23.98;42.85;98831.00;4848553;29;20033;-94
2023/05/16 10:24:40;;;;;;;12.45;4.70;;;;;;;24.19;42.36;98875.31;4880318;29;20061;-94
2023/05/16 10:27:14;;;;;;;;;;;;;;;24.26;42.45;98871.88;4884121;29;20396;-95
2023/05/16 10:29:47;;;;;;;18.63;3.80;;;;;;;24.34;42.19;98875.50;4880001;29;20488;-92
2023/05/16 10:32:13;;;;;;;18.42;3.83;;;;;;;24.43;42.67;98886.25;4870263;29;20538;-93
2023/05/16 10:34:38;;;;;;;15.18;3.97;;;;;;;24.35;43.15;98860.59;4875201;29;20201;-92
2023/05/16 10:37:05;;;;;;;16.98;4.78;;;;;;;24.37;43.33;98859.03;4900452;29;20063;-92
2023/05/16 10:39:33;;;;;;;21.10;7.32;;;;;;;24.56;43.74;98893.13;4890183;29;20041;-93
2023/05/16 10:41:58;;;;;;;14.27;7.90;;;;;;;24.45;45.43;98878.41;4882748;29;20024;-94
2023/05/16 10:44:25;;;;;;;14.35;4.40;;;;;;;24.39;45.28;98867.72;4862711;29;20141;-96
2023/05/16 10:46:57;;;;;;;18.23;5.38;;;;;;;24.50;45.31;98856.88;4858751;29;20501;-95
2023/05/16 10:49:25;;;;;;;18.15;4.57;;;;;;;24.36;45.14;98859.41;4900912;29;20116;-96
2023/05/16 10:52:30;;;;;;;10.55;4.53;;;;;;;24.54;44.35;98852.19;4881453;29;20521;-96
2023/05/16 10:55:04;;;;;;;12.60;5.07;;;;;;;24.51;44.95;98850.22;4896715;29;20140;-96
2023/05/16 10:57:43;;;;;;;12.32;4.90;;;;;;;24.65;44.27;98846.81;4891744;29;20521;-94
2023/05/16 11:00:30;;;;;;;16.63;8.73;;;;;;;24.36;46.03;98838.22;5144297;23;20019;-96
2023/05/16 11:03:24;;;;;;;9.43;4.97;;;;;;;24.48;46.09;98845.41;4878385;29;20492;-93
2023/05/16 11:06:08;;;;;;;12.25;4.35;;;;;;;24.62;44.70;98844.03;4857401;29;20029;-95
2023/05/16 11:08:57;;;;;;;16.00;5.30;;;;;;;24.69;43.54;98836.63;4857169;29;20173;-92
2023/05/16 11:11:53;;;;;;;12.02;4.28;;;;;;;24.87;43.30;98830.53;4879182;29;20124;-96
2023/05/16 11:14:44;;;;;;;10.45;4.20;;;;;;;24.88;44.51;98818.34;4893608;29;20037;-94
2023/05/16 11:17:27;;;;;;;18.00;5.20;;;;;;;25.02;45.04;98827.53;4864725;29;20028;-96
2023/05/16 11:21:10;;;;;;;7.93;4.18;;;;;;;25.07;43.41;98804.38;5054939;23;20047;-96
2023/05/16 11:24:18;;;;;;;9.25;4.40;;;;;;;25.05;43.23;98797.66;4972378;29;20051;-96
2023/05/16 11:27:15;;;;;;;9.32;3.90;;;;;;;25.38;42.78;98805.03;4933165;29;20048;-96
2023/05/16 11:30:06;;;;;;;13.55;4.45;;;;;;;25.54;41.53;98797.28;4874658;29;20040;-96
2023/05/16 11:32:59;;;;;;;10.18;3.90;;;;;;;25.61;40.27;98771.75;4860628;29;20037;-96
2023/05/16 11:35:37;;;;;;;15.13;4.07;;;;;;;25.87;40.79;98769.91;4887059;29;20041;-95
2023/05/16 11:38:03;;;;;;;12.20;3.45;;;;;;;25.86;41.08;98766.38;4856473;29;20048;-93
2023/05/16 11:43:47;;;;;;;;;;;;;;;;;;;;;
2023/05/16 11:46:45;;;;;;;17.00;7.18;;;;;;;26.20;40.41;98750.38;4887660;29;20156;-95
2023/05/16 11:49:26;;;;;;;12.63;3.83;;;;;;;26.21;40.00;98749.22;4876158;29;20070;-95
2023/05/16 11:52:27;;;;;;;;;;;;;;;;;;;;;
2023/05/16 11:54:53;;;;;;;8.73;2.83;;;;;;;26.42;39.28;98759.53;4852254;29;20140;-92
2023/05/16 11:57:20;;;;;;;8.85;3.13;;;;;;;26.56;39.67;98755.22;4840474;29;20142;-93
2023/05/16 11:59:46;;;;;;;11.32;3.40;;;;;;;26.58;39.72;98753.69;4843182;29;20032;-95
2023/05/16 12:02:11;;;;;;;9.27;3.50;;;;;;;26.56;38.59;98738.66;4849155;29;20036;-94
2023/05/16 12:04:40;;;;;;;14.75;7.38;;;;;;;26.31;37.84;98727.53;4861517;29;20056;-93
2023/05/16 12:07:05;;;;;;;10.55;2.90;;;;;;;26.37;38.58;98731.50;4847162;29;20055;-94
2023/05/16 12:09:31;;;;;;;8.45;3.22;;;;;;;26.21;38.91;98724.38;4841527;29;20037;-95
2023/05/16 12:12:28;;;;;;;9.10;4.63;;;;;;;26.20;39.05;98713.72;4858120;29;20089;-96
2023/05/16 12:18:50;;;;;;;;;;;;;;;;;;;;;
2023/05/16 12:21:53;;;;;;;9.88;3.53;;;;;;;26.04;40.84;98697.50;4840437;29;20220;-96
2023/05/16 12:24:21;;;;;;;16.02;4.97;;;;;;;26.11;41.42;98707.78;4852845;29;20163;-95
2023/05/16 12:26:49;;;;;;;12.60;5.20;;;;;;;25.91;41.79;98699.81;4839467;29;20053;-96
2023/05/16 12:29:23;;;;;;;9.18;3.47;;;;;;;25.92;42.20;98704.19;4845171;29;20043;-95
2023/05/16 12:32:21;;;;;;;15.52;3.90;;;;;;;25.93;42.11;98694.72;4877218;29;20041;-96
2023/05/16 12:41:29;;;;;;;7.55;2.55;;;;;;;25.27;42.28;98719.53;4878305;29;20063;-95
2023/05/16 12:47:27;;;;;;;;;;;;;;;;;;;;;
2023/05/16 12:54:00;;;;;;;9.05;3.28;;;;;;;24.51;44.11;98687.81;4875881;29;20101;-96
2023/05/16 12:56:50;;;;;;;6.97;2.70;;;;;;;24.66;44.50;98701.72;4863317;29;20073;-96
2023/05/16 12:59:16;;;;;;;8.45;2.67;;;;;;;24.60;44.60;98698.50;4840424;29;20037;-95
2023/05/16 13:02:06;;;;;;;10.45;2.80;;;;;;;24.72;44.54;98697.44;4878001;29;20106;-95